createdAt,value
2023-04-26T00:00:26.822Z,9.80
2023-04-26T00:02:53.316Z,9.68
2023-04-26T00:05:20.263Z,8.18
2023-04-26T00:07:46.737Z,9.88
2023-04-26T00:10:13.118Z,9.18
2023-04-26T00:12:39.564Z,9.03
2023-04-26T00:15:06.235Z,8.77
2023-04-26T00:17:32.706Z,9.00
2023-04-26T00:19:59.227Z,8.57
2023-04-26T00:22:25.599Z,8.90
2023-04-26T00:24:51.960Z,8.90
2023-04-26T00:27:18.423Z,7.07
2023-04-26T00:29:44.817Z,8.40
2023-04-26T00:32:11.190Z,8.23
2023-04-26T00:34:38.897Z,7.60
2023-04-26T00:37:05.857Z,7.20
2023-04-26T00:39:32.379Z,7.07
2023-04-26T00:41:58.869Z,7.47
2023-04-26T00:44:25.230Z,6.50
2023-04-26T00:46:52.704Z,6.28
2023-04-26T00:49:20.939Z,6.40
2023-04-26T00:51:48.018Z,6.20
2023-04-26T00:54:15.410Z,5.38
2023-04-26T00:56:42.481Z,6.78
2023-04-26T00:59:08.815Z,6.55
2023-04-26T01:01:35.662Z,6.47
2023-04-26T01:04:02.755Z,6.68
2023-04-26T01:06:33.896Z,6.57
2023-04-26T01:09:01.984Z,5.90
2023-04-26T01:11:29.009Z,6.63
2023-04-26T01:13:56.255Z,6.07
2023-04-26T01:16:23.049Z,6.45
2023-04-26T01:18:53.152Z,6.93
2023-04-26T01:21:20.897Z,6.82
2023-04-26T01:23:47.489Z,6.78
2023-04-26T01:26:13.884Z,7.10
2023-04-26T01:28:40.226Z,6.65
2023-04-26T01:31:07.019Z,6.32
2023-04-26T01:33:33.570Z,6.95
2023-04-26T01:35:59.941Z,7.80
2023-04-26T01:38:26.297Z,7.50
2023-04-26T01:40:53.036Z,8.32
2023-04-26T01:43:19.537Z,6.90
2023-04-26T01:45:48.934Z,6.82
2023-04-26T01:48:16.921Z,6.97
2023-04-26T01:50:43.295Z,6.50
2023-04-26T01:53:09.657Z,5.45
2023-04-26T01:55:36.104Z,6.05
2023-04-26T01:58:02.468Z,6.32
2023-04-26T02:00:29.467Z,5.60
2023-04-26T02:02:56.848Z,5.60
2023-04-26T02:05:23.526Z,5.80
2023-04-26T02:07:50.720Z,6.13
2023-04-26T02:10:17.565Z,5.40
2023-04-26T02:12:44.102Z,5.78
2023-04-26T02:15:11.105Z,6.53
2023-04-26T02:17:38.578Z,6.63
2023-04-26T02:20:05.475Z,7.05
2023-04-26T02:22:31.979Z,6.80
2023-04-26T02:24:58.381Z,6.78
2023-04-26T02:27:24.923Z,6.80
2023-04-26T02:29:51.289Z,6.40
2023-04-26T02:32:17.882Z,7.60
2023-04-26T02:34:44.575Z,5.80
2023-04-26T02:37:11.091Z,6.90
2023-04-26T02:39:37.479Z,6.10
2023-04-26T02:42:03.850Z,7.28
2023-04-26T02:44:30.611Z,6.47
2023-04-26T02:46:57.823Z,6.78
2023-04-26T02:49:24.304Z,6.75
2023-04-26T02:51:50.744Z,6.87
2023-04-26T02:54:17.281Z,6.25
2023-04-26T02:56:43.805Z,6.55
2023-04-26T02:59:10.257Z,7.10
2023-04-26T03:01:36.867Z,7.47
2023-04-26T03:04:03.442Z,6.60
2023-04-26T03:06:29.904Z,12.98
2023-04-26T03:08:56.529Z,7.28
2023-04-26T03:11:22.884Z,9.40
2023-04-26T03:13:49.258Z,8.07
2023-04-26T03:16:15.734Z,7.57
2023-04-26T03:18:42.128Z,7.47
2023-04-26T03:21:08.524Z,8.93
2023-04-26T03:23:35.101Z,8.25
2023-04-26T03:26:01.589Z,7.65
2023-04-26T03:28:28.064Z,8.20
2023-04-26T03:30:54.619Z,7.65
2023-04-26T03:33:21.104Z,8.10
2023-04-26T03:35:47.568Z,7.18
2023-04-26T03:38:14.100Z,8.30
2023-04-26T03:40:40.588Z,7.80
2023-04-26T03:43:06.949Z,8.02
2023-04-26T03:45:33.464Z,7.78
2023-04-26T03:48:00.049Z,7.10
2023-04-26T03:50:26.470Z,7.78
2023-04-26T03:52:52.932Z,7.60
2023-04-26T03:55:19.780Z,7.47
2023-04-26T03:57:46.417Z,7.13
2023-04-26T04:00:13.181Z,7.55
2023-04-26T04:02:40.092Z,5.53
2023-04-26T04:05:06.838Z,7.13
2023-04-26T04:07:33.400Z,7.68
2023-04-26T04:09:59.768Z,6.80
2023-04-26T04:12:26.165Z,6.15
2023-04-26T04:14:52.786Z,6.15
2023-04-26T04:17:19.183Z,5.60
2023-04-26T04:19:45.548Z,5.20
2023-04-26T04:22:11.927Z,5.53
2023-04-26T04:24:38.269Z,5.78
2023-04-26T04:27:04.634Z,6.00
2023-04-26T04:29:31.097Z,5.60
2023-04-26T04:31:57.443Z,5.78
2023-04-26T04:34:23.797Z,6.60
2023-04-26T04:36:50.268Z,6.55
2023-04-26T04:39:16.781Z,7.25
2023-04-26T04:41:43.658Z,7.10
2023-04-26T04:44:10.104Z,5.85
2023-04-26T04:46:36.503Z,6.50
2023-04-26T04:49:02.914Z,7.60
2023-04-26T04:51:29.327Z,7.05
2023-04-26T04:53:57.273Z,8.30
2023-04-26T04:56:23.781Z,8.82
2023-04-26T04:58:50.484Z,8.45
2023-04-26T05:01:17.017Z,9.10
2023-04-26T05:03:43.574Z,8.98
2023-04-26T05:06:10.460Z,9.00
2023-04-26T05:08:36.808Z,9.43
2023-04-26T05:11:03.164Z,8.07
2023-04-26T05:13:29.568Z,8.20
2023-04-26T05:15:55.966Z,9.60
2023-04-26T05:18:22.328Z,8.43
2023-04-26T05:20:48.767Z,7.25
2023-04-26T05:23:15.124Z,7.72
2023-04-26T05:25:41.461Z,7.60
2023-04-26T05:28:07.852Z,8.15
2023-04-26T05:30:34.245Z,8.17
2023-04-26T05:33:00.707Z,7.57
2023-04-26T05:35:27.274Z,8.18
2023-04-26T05:37:53.768Z,8.05
2023-04-26T05:40:20.218Z,7.55
2023-04-26T05:42:46.749Z,7.93
2023-04-26T05:45:13.217Z,8.05
2023-04-26T05:47:39.678Z,8.27
2023-04-26T05:50:07.019Z,8.13
2023-04-26T05:52:33.600Z,7.97
2023-04-26T05:55:00.225Z,7.70
2023-04-26T05:57:26.846Z,7.90
2023-04-26T05:59:53.416Z,8.73
2023-04-26T06:02:19.974Z,7.13
2023-04-26T06:04:46.960Z,7.05
2023-04-26T06:07:13.583Z,6.37
2023-04-26T06:09:39.957Z,6.63
2023-04-26T06:12:06.568Z,6.90
2023-04-26T06:14:33.316Z,5.82
2023-04-26T06:16:59.785Z,6.90
2023-04-26T06:19:26.463Z,6.30
2023-04-26T06:21:52.800Z,5.90
2023-04-26T06:24:19.157Z,6.68
2023-04-26T06:26:45.694Z,7.50
2023-04-26T06:29:12.184Z,6.53
2023-04-26T06:31:38.544Z,6.53
2023-04-26T06:34:04.944Z,6.55
2023-04-26T06:36:31.314Z,6.63
2023-04-26T06:38:57.811Z,6.32
2023-04-26T06:41:24.450Z,5.95
2023-04-26T06:43:51.169Z,6.00
2023-04-26T06:46:17.966Z,5.65
2023-04-26T06:48:44.769Z,7.13
2023-04-26T06:51:11.401Z,6.35
2023-04-26T06:53:37.767Z,6.25
2023-04-26T06:56:04.669Z,6.10
2023-04-26T06:58:31.031Z,6.35
2023-04-26T07:00:57.601Z,6.50
2023-04-26T07:03:24.321Z,6.57
2023-04-26T07:05:51.034Z,7.47
2023-04-26T07:08:17.536Z,6.57
2023-04-26T07:10:44.085Z,6.38
2023-04-26T07:13:10.452Z,6.75
2023-04-26T07:15:36.959Z,7.85
2023-04-26T07:18:03.402Z,7.05
2023-04-26T07:20:29.792Z,6.13
2023-04-26T07:22:56.173Z,5.40
2023-04-26T07:25:22.964Z,7.07
2023-04-26T07:27:49.445Z,5.63
2023-04-26T07:30:15.917Z,6.35
2023-04-26T07:32:42.530Z,5.60
2023-04-26T07:35:10.564Z,5.30
2023-04-26T07:37:37.084Z,6.78
2023-04-26T07:40:03.997Z,6.10
2023-04-26T07:42:30.494Z,5.47
2023-04-26T07:44:57.046Z,5.43
2023-04-26T07:47:23.663Z,5.85
2023-04-26T07:49:53.573Z,5.85
2023-04-26T07:52:20.073Z,4.65
2023-04-26T07:54:47.708Z,6.22
2023-04-26T07:57:14.484Z,5.87
2023-04-26T07:59:40.987Z,6.35
2023-04-26T08:02:07.683Z,6.07
2023-04-26T08:04:34.564Z,6.47
2023-04-26T08:07:01.431Z,5.60
2023-04-26T08:09:29.274Z,6.77
2023-04-26T08:11:55.876Z,6.45
2023-04-26T08:14:22.392Z,6.85
2023-04-26T08:16:48.997Z,6.35
2023-04-26T08:19:15.546Z,6.82
2023-04-26T08:21:42.157Z,6.97
2023-04-26T08:24:08.808Z,6.93
2023-04-26T08:26:35.305Z,6.40
2023-04-26T08:29:01.801Z,6.07
2023-04-26T08:31:28.403Z,6.55
2023-04-26T08:33:55.034Z,6.80
2023-04-26T08:36:21.654Z,6.47
2023-04-26T08:38:48.168Z,7.15
2023-04-26T08:41:20.917Z,6.00
2023-04-26T08:43:48.703Z,7.03
2023-04-26T08:46:18.977Z,5.77
2023-04-26T08:48:54.688Z,6.50
2023-04-26T08:51:22.435Z,5.95
2023-04-26T08:53:51.876Z,5.22
2023-04-26T08:56:18.646Z,5.65
2023-04-26T08:58:45.249Z,5.37
2023-04-26T09:01:15.025Z,6.28
2023-04-26T09:03:41.724Z,6.47
2023-04-26T09:06:09.029Z,5.47
2023-04-26T09:08:40.377Z,5.93
2023-04-26T09:11:06.912Z,5.57
2023-04-26T09:13:33.529Z,5.43
2023-04-26T09:16:03.401Z,5.20
2023-04-26T09:18:31.157Z,5.32
2023-04-26T09:21:09.113Z,6.07
2023-04-26T09:23:35.968Z,7.33
2023-04-26T09:26:18.425Z,4.85
2023-04-26T09:28:44.881Z,4.60
2023-04-26T09:31:11.387Z,4.57
2023-04-26T09:33:57.909Z,4.85
2023-04-26T09:36:24.436Z,4.40
2023-04-26T09:38:51.173Z,5.60
2023-04-26T09:41:18.098Z,5.80
2023-04-26T09:43:44.621Z,4.78
2023-04-26T09:46:11.114Z,6.10
2023-04-26T09:48:38.122Z,5.13
2023-04-26T09:51:04.565Z,5.32
2023-04-26T09:53:39.008Z,5.38
2023-04-26T09:56:08.456Z,5.50
2023-04-26T09:58:37.242Z,5.55
2023-04-26T10:01:04.411Z,5.23
2023-04-26T10:03:31.611Z,5.00
2023-04-26T10:05:58.702Z,5.25
2023-04-26T10:08:26.048Z,5.63
2023-04-26T10:10:53.110Z,5.75
2023-04-26T10:13:19.745Z,5.50
2023-04-26T10:15:47.681Z,5.90
2023-04-26T10:18:14.206Z,5.82
2023-04-26T10:20:43.357Z,5.78
2023-04-26T10:23:20.300Z,5.43
2023-04-26T10:25:48.049Z,5.87
2023-04-26T10:28:14.595Z,5.72
2023-04-26T10:31:00.399Z,6.20
2023-04-26T10:33:27.255Z,5.90
2023-04-26T10:36:10.286Z,5.72
2023-04-26T10:39:01.100Z,4.47
2023-04-26T10:41:35.294Z,5.40
2023-04-26T10:44:37.660Z,4.90
2023-04-26T10:47:06.230Z,4.88
2023-04-26T10:49:44.589Z,5.30
2023-04-26T10:52:20.958Z,4.33
2023-04-26T10:54:54.898Z,5.50
2023-04-26T10:57:23.226Z,5.75
2023-04-26T11:00:31.735Z,4.82
2023-04-26T11:03:04.379Z,4.97
2023-04-26T11:05:52.792Z,5.20
2023-04-26T11:08:23.980Z,4.70
2023-04-26T11:10:59.247Z,4.90
2023-04-26T11:13:25.808Z,5.40
2023-04-26T11:16:00.169Z,4.85
2023-04-26T11:18:26.734Z,5.30
2023-04-26T11:20:53.319Z,5.10
2023-04-26T11:23:19.935Z,5.13
2023-04-26T11:25:46.852Z,4.60
2023-04-26T11:28:13.345Z,4.72
2023-04-26T11:30:40.446Z,4.30
2023-04-26T11:33:07.093Z,4.45
2023-04-26T11:35:36.592Z,4.88
2023-04-26T11:38:04.921Z,4.55
2023-04-26T11:40:32.551Z,4.85
2023-04-26T11:43:09.514Z,4.13
2023-04-26T11:45:37.568Z,4.50
2023-04-26T11:48:06.998Z,4.57
2023-04-26T11:50:36.513Z,5.18
2023-04-26T11:53:06.445Z,5.20
2023-04-26T11:55:34.310Z,4.77
2023-04-26T11:58:01.698Z,5.20
2023-04-26T12:00:28.452Z,5.07
2023-04-26T12:02:55.146Z,5.07
2023-04-26T12:05:22.349Z,5.25
2023-04-26T12:07:55.851Z,4.60
2023-04-26T12:10:29.355Z,4.85
2023-04-26T12:12:58.518Z,4.70
2023-04-26T12:15:34.650Z,4.93
2023-04-26T12:18:11.749Z,4.70
2023-04-26T12:20:42.140Z,4.40
2023-04-26T12:23:14.832Z,4.45
2023-04-26T12:25:51.233Z,3.92
2023-04-26T12:28:17.671Z,3.45
2023-04-26T12:30:44.077Z,4.20
2023-04-26T12:33:17.105Z,3.60
2023-04-26T12:35:44.249Z,3.58
2023-04-26T12:38:10.949Z,3.67
2023-04-26T12:40:37.571Z,2.90
2023-04-26T12:43:04.518Z,3.40
2023-04-26T12:45:30.870Z,3.27
2023-04-26T12:47:57.347Z,2.22
2023-04-26T12:50:23.976Z,2.38
2023-04-26T12:52:50.341Z,3.05
2023-04-26T12:55:17.076Z,3.88
2023-04-26T12:57:44.486Z,3.93
2023-04-26T13:00:11.911Z,4.22
2023-04-26T13:02:38.586Z,4.18
2023-04-26T13:05:05.660Z,3.35
2023-04-26T13:07:37.168Z,3.13
2023-04-26T13:10:04.363Z,3.50
2023-04-26T13:12:31.578Z,3.42
2023-04-26T13:14:57.969Z,3.70
2023-04-26T13:17:25.013Z,6.20
2023-04-26T13:19:51.686Z,4.10
2023-04-26T13:22:18.382Z,4.10
2023-04-26T13:24:44.952Z,4.50
2023-04-26T13:27:11.445Z,6.05
2023-04-26T13:29:37.792Z,3.83
2023-04-26T13:32:04.185Z,3.85
2023-04-26T13:34:30.559Z,4.07
2023-04-26T13:36:57.014Z,4.50
2023-04-26T13:39:23.818Z,4.25
2023-04-26T13:41:50.575Z,4.00
2023-04-26T13:44:17.028Z,4.07
2023-04-26T13:46:43.465Z,3.80
2023-04-26T13:49:09.957Z,4.07
2023-04-26T13:51:36.408Z,4.10
2023-04-26T13:54:04.262Z,3.97
2023-04-26T13:56:30.904Z,3.75
2023-04-26T13:58:57.310Z,4.10
2023-04-26T14:01:23.715Z,4.03
2023-04-26T14:03:51.751Z,4.97
2023-04-26T14:06:20.551Z,4.28
2023-04-26T14:08:46.987Z,3.88
2023-04-26T14:11:13.419Z,4.10
2023-04-26T14:13:40.462Z,4.55
2023-04-26T14:16:08.038Z,5.40
2023-04-26T14:18:34.548Z,5.40
2023-04-26T14:21:00.938Z,5.30
2023-04-26T14:23:27.290Z,4.80
2023-04-26T14:25:54.785Z,4.95
2023-04-26T14:28:21.173Z,5.63
2023-04-26T14:30:47.525Z,4.93
2023-04-26T14:33:14.018Z,4.85
2023-04-26T14:35:40.423Z,4.80
2023-04-26T14:38:06.793Z,4.80
2023-04-26T14:40:33.258Z,4.68
2023-04-26T14:42:59.678Z,4.70
2023-04-26T14:45:36.865Z,4.45
2023-04-26T14:48:10.940Z,4.87
2023-04-26T14:50:37.264Z,4.93
2023-04-26T14:53:03.647Z,5.13
2023-04-26T14:55:30.113Z,9.40
2023-04-26T14:57:56.483Z,5.55
2023-04-26T15:00:22.972Z,8.73
2023-04-26T15:02:49.916Z,4.85
2023-04-26T15:05:16.370Z,5.95
2023-04-26T15:07:42.733Z,5.25
2023-04-26T15:10:09.527Z,6.65
2023-04-26T15:12:36.461Z,6.10
2023-04-26T15:15:05.913Z,6.57
2023-04-26T15:17:33.080Z,6.45
2023-04-26T15:20:00.547Z,6.38
2023-04-26T15:22:26.908Z,4.93
2023-04-26T15:24:54.134Z,5.07
2023-04-26T15:27:20.572Z,5.30
2023-04-26T15:29:46.927Z,5.25
2023-04-26T15:32:13.364Z,6.43
2023-04-26T15:34:40.460Z,7.70
2023-04-26T15:37:06.808Z,7.10
2023-04-26T15:39:33.288Z,7.43
2023-04-26T15:41:59.646Z,6.93
2023-04-26T15:44:25.997Z,15.88
2023-04-26T15:46:52.907Z,6.78
2023-04-26T15:49:19.237Z,5.83
2023-04-26T15:51:45.605Z,6.28
2023-04-26T15:54:12.023Z,6.70
2023-04-26T15:56:39.482Z,6.32
2023-04-26T15:59:05.840Z,6.72
2023-04-26T16:01:33.093Z,6.40
2023-04-26T16:03:59.719Z,6.35
2023-04-26T16:06:26.157Z,6.90
2023-04-26T16:08:52.962Z,6.13
2023-04-26T16:11:19.366Z,5.78
2023-04-26T16:13:45.790Z,6.70
2023-04-26T16:16:12.213Z,6.57
2023-04-26T16:18:38.644Z,6.18
2023-04-26T16:21:08.074Z,6.47
2023-04-26T16:23:34.471Z,6.45
2023-04-26T16:26:01.181Z,9.40
2023-04-26T16:28:27.749Z,7.00
2023-04-26T16:30:54.960Z,7.65
2023-04-26T16:33:22.925Z,7.18
2023-04-26T16:35:50.359Z,6.93
2023-04-26T16:38:17.034Z,6.53
2023-04-26T16:40:43.374Z,7.45
2023-04-26T16:43:09.723Z,10.63
2023-04-26T16:45:36.104Z,11.13
2023-04-26T16:48:02.535Z,9.73
2023-04-26T16:50:28.912Z,8.40
2023-04-26T16:52:55.350Z,9.45
2023-04-26T16:55:21.691Z,9.93
2023-04-26T16:57:48.403Z,8.70
2023-04-26T17:00:15.218Z,8.13
2023-04-26T17:02:41.765Z,6.50
2023-04-26T17:05:08.562Z,8.70
2023-04-26T17:07:34.988Z,8.60
2023-04-26T17:10:01.354Z,9.85
2023-04-26T17:12:27.697Z,8.45
2023-04-26T17:14:54.074Z,5.70
2023-04-26T17:17:20.427Z,8.45
2023-04-26T17:19:46.772Z,8.15
2023-04-26T17:22:13.348Z,7.00
2023-04-26T17:24:39.719Z,9.27
2023-04-26T17:27:06.060Z,8.73
2023-04-26T17:29:32.531Z,7.07
2023-04-26T17:31:58.970Z,6.88
2023-04-26T17:34:25.437Z,6.88
2023-04-26T17:36:52.217Z,7.78
2023-04-26T17:39:18.560Z,7.17
2023-04-26T17:41:44.907Z,7.75
2023-04-26T17:44:11.360Z,8.55
2023-04-26T17:46:37.700Z,8.73
2023-04-26T17:49:04.044Z,8.82
2023-04-26T17:51:30.481Z,7.97
2023-04-26T17:53:56.862Z,9.18
2023-04-26T17:56:23.212Z,8.82
2023-04-26T17:58:50.412Z,15.63
2023-04-26T18:01:16.799Z,8.77
2023-04-26T18:03:43.481Z,14.13
2023-04-26T18:06:09.998Z,9.05
2023-04-26T18:08:36.343Z,14.40
2023-04-26T18:11:02.745Z,12.48
2023-04-26T18:13:29.150Z,10.52
2023-04-26T18:15:55.547Z,10.90
2023-04-26T18:18:21.915Z,9.75
2023-04-26T18:20:48.359Z,8.68
2023-04-26T18:23:14.696Z,7.07
2023-04-26T18:25:41.128Z,7.80
2023-04-26T18:28:07.588Z,8.10
2023-04-26T18:30:33.973Z,8.82
2023-04-26T18:33:00.392Z,7.30
2023-04-26T18:35:26.976Z,9.48
2023-04-26T18:37:53.332Z,9.35
2023-04-26T18:40:19.701Z,10.43
2023-04-26T18:42:46.111Z,9.15
2023-04-26T18:45:12.684Z,11.43
2023-04-26T18:47:39.119Z,11.07
2023-04-26T18:50:05.860Z,12.77
2023-04-26T18:52:32.200Z,14.50
2023-04-26T18:54:58.733Z,11.60
2023-04-26T18:57:26.364Z,11.07
2023-04-26T18:59:52.782Z,8.63
2023-04-26T19:02:19.212Z,8.75
2023-04-26T19:04:48.231Z,8.67
2023-04-26T19:07:16.755Z,8.98
2023-04-26T19:09:53.702Z,10.30
2023-04-26T19:12:21.361Z,11.90
2023-04-26T19:14:47.721Z,8.98
2023-04-26T19:17:14.068Z,9.03
2023-04-26T19:19:40.559Z,9.70
2023-04-26T19:22:07.010Z,11.35
2023-04-26T19:24:33.368Z,12.95
2023-04-26T19:26:59.824Z,11.98
2023-04-26T19:29:26.176Z,9.83
2023-04-26T19:31:52.594Z,12.35
2023-04-26T19:34:19.054Z,13.05
2023-04-26T19:36:45.440Z,11.98
2023-04-26T19:39:11.802Z,12.32
2023-04-26T19:41:38.253Z,10.40
2023-04-26T19:44:04.630Z,10.95
2023-04-26T19:46:31.031Z,10.82
2023-04-26T19:48:57.484Z,10.13
2023-04-26T19:51:23.840Z,8.02
2023-04-26T19:53:50.206Z,7.63
2023-04-26T19:56:16.584Z,8.70
2023-04-26T19:58:42.916Z,8.80
2023-04-26T20:01:09.350Z,9.65
2023-04-26T20:03:36.254Z,11.05
2023-04-26T20:06:02.722Z,10.53
2023-04-26T20:08:31.304Z,10.73
2023-04-26T20:11:01.524Z,10.70
2023-04-26T20:13:27.875Z,10.80
2023-04-26T20:15:54.245Z,11.30
2023-04-26T20:18:20.586Z,11.23
2023-04-26T20:20:46.921Z,11.32
2023-04-26T20:23:13.279Z,11.60
2023-04-26T20:25:40.455Z,10.90
2023-04-26T20:28:06.823Z,10.40
2023-04-26T20:30:33.172Z,12.13
2023-04-26T20:32:59.863Z,11.15
2023-04-26T20:35:26.337Z,10.15
2023-04-26T20:37:53.878Z,10.88
2023-04-26T20:40:20.599Z,10.50
2023-04-26T20:42:46.993Z,9.37
2023-04-26T20:45:13.368Z,10.18
2023-04-26T20:47:39.849Z,9.77
2023-04-26T20:50:06.554Z,8.27
2023-04-26T20:52:32.928Z,9.40
2023-04-26T20:54:59.407Z,7.97
2023-04-26T20:57:25.776Z,7.60
2023-04-26T20:59:52.353Z,6.32
2023-04-26T21:02:20.006Z,6.05
2023-04-26T21:04:46.714Z,5.63
2023-04-26T21:07:13.349Z,6.77
2023-04-26T21:09:40.696Z,4.68
2023-04-26T21:12:07.216Z,8.35
2023-04-26T21:14:33.666Z,6.90
2023-04-26T21:17:00.281Z,4.05
2023-04-26T21:19:27.213Z,5.53
2023-04-26T21:21:53.641Z,6.38
2023-04-26T21:24:20.147Z,6.10
2023-04-26T21:26:46.587Z,6.95
2023-04-26T21:29:13.008Z,5.93
2023-04-26T21:31:39.596Z,5.73
2023-04-26T21:34:06.058Z,4.90
2023-04-26T21:36:32.509Z,4.20
2023-04-26T21:38:59.812Z,4.65
2023-04-26T21:41:26.236Z,4.60
2023-04-26T21:43:52.644Z,4.30
2023-04-26T21:46:19.556Z,4.55
2023-04-26T21:48:46.008Z,4.65
2023-04-26T21:51:12.426Z,4.30
2023-04-26T21:53:38.922Z,4.05
2023-04-26T21:56:05.628Z,4.33
2023-04-26T21:58:32.047Z,4.57
2023-04-26T22:01:07.187Z,4.60
2023-04-26T22:03:34.099Z,5.43
2023-04-26T22:06:00.563Z,5.72
2023-04-26T22:08:27.014Z,5.90
2023-04-26T22:10:53.411Z,5.75
2023-04-26T22:13:19.846Z,5.72
2023-04-26T22:15:46.336Z,5.32
2023-04-26T22:18:12.746Z,6.30
2023-04-26T22:20:39.156Z,6.00
2023-04-26T22:23:05.763Z,5.28
2023-04-26T22:25:32.253Z,5.82
2023-04-26T22:27:58.715Z,5.70
2023-04-26T22:30:26.209Z,5.88
2023-04-26T22:32:56.675Z,5.50
2023-04-26T22:35:23.568Z,5.70
2023-04-26T22:37:50.184Z,5.60
2023-04-26T22:40:16.759Z,5.32
2023-04-26T22:42:43.521Z,5.20
2023-04-26T22:45:10.589Z,5.57
2023-04-26T22:47:37.047Z,6.07
2023-04-26T22:50:03.887Z,6.43
2023-04-26T22:52:31.840Z,6.68
2023-04-26T22:54:58.643Z,6.05
2023-04-26T22:57:25.238Z,6.00
2023-04-26T22:59:51.729Z,6.18
2023-04-26T23:02:18.224Z,5.95
2023-04-26T23:04:44.701Z,5.65
2023-04-26T23:07:11.191Z,6.20
2023-04-26T23:09:37.735Z,6.37
2023-04-26T23:12:04.376Z,6.47
2023-04-26T23:14:30.958Z,6.60
2023-04-26T23:16:57.628Z,6.18
2023-04-26T23:19:24.333Z,5.78
2023-04-26T23:21:50.973Z,5.73
2023-04-26T23:24:17.430Z,6.32
2023-04-26T23:26:43.862Z,6.32
2023-04-26T23:29:10.437Z,6.18
2023-04-26T23:31:37.125Z,5.97
2023-04-26T23:34:03.625Z,6.90
2023-04-26T23:36:30.104Z,6.72
2023-04-26T23:38:56.519Z,7.22
2023-04-26T23:41:22.948Z,7.60
2023-04-26T23:43:49.431Z,7.60
2023-04-26T23:46:15.876Z,6.60
2023-04-26T23:48:42.424Z,7.22
2023-04-26T23:51:08.991Z,6.53
2023-04-26T23:53:35.442Z,6.43
2023-04-26T23:56:02.014Z,6.32
2023-04-26T23:58:28.516Z,5.73
